Time;durP1;ratioP1;P1;durP2;ratioP2;P2;SDS_P1;SDS_P2;PMS_P1;PMS_P2;Temp;Humidity;BMP_temperature;BMP_pressure;BME280_temperature;BME280_humidity;BME280_pressure;Samples;Min_cycle;Max_cycle;Signal;HPM_P1;HPM_P2
2021/08/06 00:02:15;;;;;;;0.93;0.30;;;;;;;;;;5052789;28;20033;-57
2021/08/06 00:04:44;;;;;;;1.42;0.57;;;;;;;;;;5053636;28;20027;-57
2021/08/06 00:07:11;;;;;;;1.10;0.55;;;;;;;;;;5052586;28;20036;-57
2021/08/06 00:09:38;;;;;;;1.42;0.75;;;;;;;;;;5053313;28;20036;-57
2021/08/06 00:12:04;;;;;;;1.80;0.95;;;;;;;;;;5053676;28;20029;-57
2021/08/06 00:14:34;;;;;;;2.10;0.50;;;;;;;;;;5053503;28;20439;-57
2021/08/06 00:17:00;;;;;;;1.27;0.60;;;;;;;;;;5053311;28;20071;-57
2021/08/06 00:19:26;;;;;;;1.88;0.73;;;;;;;;;;5054020;28;20036;-57
2021/08/06 00:21:52;;;;;;;1.48;0.70;;;;;;;;;;5053510;28;20052;-57
2021/08/06 00:24:18;;;;;;;0.77;0.30;;;;;;;;;;5053630;28;20080;-57
2021/08/06 00:26:44;;;;;;;1.33;0.55;;;;;;;;;;5053089;28;20033;-57
2021/08/06 00:29:10;;;;;;;1.48;0.70;;;;;;;;;;5053177;28;20031;-57
2021/08/06 00:31:37;;;;;;;1.67;0.65;;;;;;;;;;5053676;28;20021;-57
2021/08/06 00:34:05;;;;;;;1.25;0.57;;;;;;;;;;5053149;28;20426;-57
2021/08/06 00:36:32;;;;;;;1.70;0.82;;;;;;;;;;5052810;28;20108;-57
2021/08/06 00:38:58;;;;;;;1.90;1.17;;;;;;;;;;5053587;28;20028;-57
2021/08/06 00:41:24;;;;;;;1.42;0.63;;;;;;;;;;5052783;28;20017;-57
2021/08/06 00:43:50;;;;;;;0.98;0.60;;;;;;;;;;5053486;28;20032;-57
2021/08/06 00:46:16;;;;;;;1.20;0.60;;;;;;;;;;5053009;28;20040;-57
2021/08/06 00:48:47;;;;;;;0.63;0.30;;;;;;;;;;5054927;28;20017;-57
2021/08/06 00:51:13;;;;;;;1.20;0.60;;;;;;;;;;5055710;28;20040;-57
2021/08/06 00:53:40;;;;;;;0.57;0.30;;;;;;;;;;5057091;28;20036;-57
2021/08/06 00:56:06;;;;;;;2.33;1.08;;;;;;;;;;5056982;28;20378;-57
2021/08/06 00:58:32;;;;;;;1.38;0.57;;;;;;;;;;5055646;28;20024;-57
2021/08/06 01:00:58;;;;;;;1.20;0.60;;;;;;;;;;5055168;28;20120;-57
2021/08/06 01:03:25;;;;;;;3.08;0.82;;;;;;;;;;5056373;28;20086;-57
2021/08/06 01:06:10;;;;;;;1.05;0.45;;;;;;;;;;5056714;28;20056;-57
2021/08/06 01:08:56;;;;;;;1.55;0.68;;;;;;;;;;5055941;28;20550;-57
2021/08/06 01:11:24;;;;;;;2.05;0.80;;;;;;;;;;5056736;28;20060;-57
2021/08/06 01:13:55;;;;;;;0.60;0.38;;;;;;;;;;5056137;28;20052;-57
2021/08/06 01:16:26;;;;;;;1.25;0.63;;;;;;;;;;5054737;28;20033;-57
2021/08/06 01:18:56;;;;;;;1.95;0.60;;;;;;;;;;5056149;28;20063;-57
2021/08/06 01:21:24;;;;;;;1.30;0.70;;;;;;;;;;5054530;28;20470;-57
2021/08/06 01:23:51;;;;;;;4.03;0.73;;;;;;;;;;5055572;28;20029;-58
2021/08/06 01:26:18;;;;;;;1.33;0.70;;;;;;;;;;5056197;28;20047;-57
2021/08/06 01:28:46;;;;;;;1.38;0.73;;;;;;;;;;5054559;28;20051;-57
2021/08/06 01:31:13;;;;;;;1.80;0.95;;;;;;;;;;5055740;28;20048;-58
2021/08/06 01:33:39;;;;;;;1.40;0.88;;;;;;;;;;5055323;28;20345;-57
2021/08/06 01:36:05;;;;;;;4.22;1.05;;;;;;;;;;5055756;28;20017;-58
2021/08/06 01:38:31;;;;;;;2.00;0.90;;;;;;;;;;5056156;28;20115;-57
2021/08/06 01:41:16;;;;;;;1.60;0.90;;;;;;;;;;5054352;28;20445;-57
2021/08/06 01:43:56;;;;;;;1.55;0.85;;;;;;;;;;5056303;28;20029;-57
2021/08/06 01:46:36;;;;;;;1.50;0.87;;;;;;;;;;5055852;28;20075;-57
2021/08/06 01:49:04;;;;;;;1.45;0.63;;;;;;;;;;5055769;28;20100;-57
2021/08/06 01:51:33;;;;;;;2.10;0.60;;;;;;;;;;5054767;28;20036;-57
2021/08/06 01:54:00;;;;;;;1.98;0.80;;;;;;;;;;5055646;28;20044;-57
2021/08/06 01:56:26;;;;;;;1.88;1.15;;;;;;;;;;5055809;28;20022;-57
2021/08/06 01:58:56;;;;;;;2.05;0.85;;;;;;;;;;5055338;28;20029;-57
2021/08/06 02:01:23;;;;;;;1.60;0.77;;;;;;;;;;5055009;28;20061;-57
2021/08/06 02:03:49;;;;;;;1.75;0.85;;;;;;;;;;5054458;28;20378;-57
2021/08/06 02:06:19;;;;;;;1.92;0.98;;;;;;;;;;5055056;28;20032;-57
2021/08/06 02:08:48;;;;;;;1.40;0.77;;;;;;;;;;5055360;28;20451;-57
2021/08/06 02:11:17;;;;;;;1.95;0.80;;;;;;;;;;5055286;28;20263;-57
2021/08/06 02:13:43;;;;;;;1.20;0.60;;;;;;;;;;5055013;28;20051;-57
2021/08/06 02:16:09;;;;;;;2.70;1.42;;;;;;;;;;5054243;28;20090;-57
2021/08/06 02:18:36;;;;;;;1.95;0.95;;;;;;;;;;5055108;28;20024;-57
2021/08/06 02:21:07;;;;;;;1.75;1.02;;;;;;;;;;5054911;28;20109;-57
2021/08/06 02:23:35;;;;;;;1.70;1.00;;;;;;;;;;5054831;28;20036;-57
2021/08/06 02:26:01;;;;;;;1.30;0.90;;;;;;;;;;5054325;28;20040;-57
2021/08/06 02:28:28;;;;;;;1.92;1.00;;;;;;;;;;5054268;28;20367;-57
2021/08/06 02:30:55;;;;;;;2.05;0.90;;;;;;;;;;5053414;28;20056;-57
2021/08/06 02:33:24;;;;;;;3.13;1.55;;;;;;;;;;5054203;28;20398;-57
2021/08/06 02:35:50;;;;;;;2.25;1.15;;;;;;;;;;5053559;28;20434;-57
2021/08/06 02:38:21;;;;;;;1.08;0.57;;;;;;;;;;5037268;28;20033;-57
2021/08/06 02:40:48;;;;;;;1.10;0.65;;;;;;;;;;5055372;28;20391;-57
2021/08/06 02:43:14;;;;;;;1.83;0.80;;;;;;;;;;5054693;28;20459;-57
2021/08/06 02:45:40;;;;;;;3.70;1.60;;;;;;;;;;5054951;28;20032;-57
2021/08/06 02:48:06;;;;;;;2.22;1.00;;;;;;;;;;5054397;28;20028;-57
2021/08/06 02:50:32;;;;;;;1.58;0.93;;;;;;;;;;5054383;28;20025;-57
2021/08/06 02:52:58;;;;;;;3.25;1.33;;;;;;;;;;5054614;28;20463;-57
2021/08/06 02:55:24;;;;;;;1.70;0.90;;;;;;;;;;5054999;28;20032;-57
2021/08/06 02:57:50;;;;;;;3.03;1.25;;;;;;;;;;5054197;28;20098;-57
2021/08/06 03:00:16;;;;;;;1.52;0.85;;;;;;;;;;5053854;28;20091;-57
2021/08/06 03:02:42;;;;;;;1.90;0.90;;;;;;;;;;5053981;28;20466;-57
2021/08/06 03:05:08;;;;;;;1.90;1.00;;;;;;;;;;5054378;28;20032;-57
2021/08/06 03:07:34;;;;;;;3.63;0.93;;;;;;;;;;5053242;28;20078;-57
2021/08/06 03:10:00;;;;;;;4.32;1.20;;;;;;;;;;5052889;28;20123;-57
2021/08/06 03:12:26;;;;;;;1.80;1.05;;;;;;;;;;5052914;28;20029;-57
2021/08/06 03:14:52;;;;;;;2.22;1.13;;;;;;;;;;5054483;28;20418;-58
2021/08/06 03:17:18;;;;;;;1.60;0.88;;;;;;;;;;5052573;28;20029;-57
2021/08/06 03:19:45;;;;;;;1.75;1.02;;;;;;;;;;5054366;28;20020;-57
2021/08/06 03:22:11;;;;;;;1.75;0.90;;;;;;;;;;5054068;28;20029;-57
2021/08/06 03:24:37;;;;;;;2.58;1.13;;;;;;;;;;5053596;28;20131;-57
2021/08/06 03:27:03;;;;;;;2.08;1.10;;;;;;;;;;5052490;28;20025;-57
2021/08/06 03:29:29;;;;;;;6.03;1.20;;;;;;;;;;5053337;28;20024;-57
2021/08/06 03:31:55;;;;;;;2.75;1.33;;;;;;;;;;5054104;28;20029;-57
2021/08/06 03:34:21;;;;;;;1.20;0.68;;;;;;;;;;5054359;28;20061;-57
2021/08/06 03:36:47;;;;;;;1.92;0.90;;;;;;;;;;5053764;28;20029;-57
2021/08/06 03:39:13;;;;;;;2.40;1.15;;;;;;;;;;5053403;28;20028;-57
2021/08/06 03:41:39;;;;;;;1.65;1.08;;;;;;;;;;5036273;28;20021;-57
2021/08/06 03:44:05;;;;;;;2.42;1.30;;;;;;;;;;5053497;28;20040;-57
2021/08/06 03:46:31;;;;;;;2.05;1.38;;;;;;;;;;5053776;28;20036;-57
2021/08/06 03:48:57;;;;;;;3.15;0.98;;;;;;;;;;5053637;28;20025;-57
2021/08/06 03:51:23;;;;;;;2.45;1.20;;;;;;;;;;5054149;28;20324;-57
2021/08/06 03:53:49;;;;;;;2.55;1.23;;;;;;;;;;5053575;28;20021;-57
2021/08/06 03:56:15;;;;;;;2.05;1.20;;;;;;;;;;5053512;28;20033;-57
2021/08/06 03:58:41;;;;;;;1.75;0.80;;;;;;;;;;5053530;28;20025;-57
2021/08/06 04:01:07;;;;;;;2.13;1.02;;;;;;;;;;5052803;28;20021;-57
2021/08/06 04:03:33;;;;;;;2.00;1.08;;;;;;;;;;5053990;28;20374;-57
2021/08/06 04:05:59;;;;;;;3.75;1.25;;;;;;;;;;5052791;28;20111;-57
2021/08/06 04:08:25;;;;;;;2.17;1.30;;;;;;;;;;5053387;28;20379;-57
2021/08/06 04:10:51;;;;;;;2.13;1.17;;;;;;;;;;5053141;28;20025;-57
2021/08/06 04:13:17;;;;;;;2.63;1.55;;;;;;;;;;5053929;28;20082;-57
2021/08/06 04:15:43;;;;;;;2.03;1.10;;;;;;;;;;5053306;28;20025;-57
2021/08/06 04:18:09;;;;;;;2.10;1.42;;;;;;;;;;5053047;28;20554;-57
2021/08/06 04:20:36;;;;;;;1.77;0.98;;;;;;;;;;5053877;28;20025;-57
2021/08/06 04:23:02;;;;;;;2.05;1.17;;;;;;;;;;5056555;28;20433;-57
2021/08/06 04:25:29;;;;;;;1.63;1.02;;;;;;;;;;5057113;28;20373;-57
2021/08/06 04:27:55;;;;;;;4.88;1.23;;;;;;;;;;5057015;28;20036;-57
2021/08/06 04:30:21;;;;;;;2.10;1.30;;;;;;;;;;5056662;28;20071;-57
2021/08/06 04:32:47;;;;;;;2.13;1.27;;;;;;;;;;5055675;28;20064;-57
2021/08/06 04:35:13;;;;;;;1.67;1.10;;;;;;;;;;5057213;28;20446;-57
2021/08/06 04:37:53;;;;;;;3.38;1.40;;;;;;;;;;5057426;28;20031;-57
2021/08/06 04:40:20;;;;;;;1.95;1.10;;;;;;;;;;5056115;28;20017;-57
2021/08/06 04:42:46;;;;;;;2.40;1.15;;;;;;;;;;5056308;28;20037;-57
2021/08/06 04:45:13;;;;;;;2.58;1.67;;;;;;;;;;5056663;28;20035;-57
2021/08/06 04:47:49;;;;;;;3.03;1.45;;;;;;;;;;5056655;28;20363;-57
2021/08/06 04:50:16;;;;;;;2.80;2.15;;;;;;;;;;5055419;28;20090;-57
2021/08/06 04:52:42;;;;;;;2.35;1.33;;;;;;;;;;5056774;28;20021;-57
2021/08/06 04:55:09;;;;;;;2.80;1.58;;;;;;;;;;5057164;28;20029;-57
2021/08/06 04:57:36;;;;;;;2.08;1.38;;;;;;;;;;5056543;28;20025;-57
2021/08/06 05:00:02;;;;;;;2.42;1.52;;;;;;;;;;5055230;28;20471;-57
2021/08/06 05:02:28;;;;;;;2.78;1.50;;;;;;;;;;5056634;28;20490;-57
2021/08/06 05:04:54;;;;;;;3.25;1.88;;;;;;;;;;5056299;28;20053;-57
2021/08/06 05:07:20;;;;;;;2.72;1.60;;;;;;;;;;5055152;28;20060;-57
2021/08/06 05:09:46;;;;;;;1.95;1.20;;;;;;;;;;5054729;28;20534;-57
2021/08/06 05:12:12;;;;;;;2.15;1.42;;;;;;;;;;5056760;28;20040;-57
2021/08/06 05:14:39;;;;;;;2.95;1.85;;;;;;;;;;5056140;28;20100;-57
2021/08/06 05:17:05;;;;;;;2.33;1.60;;;;;;;;;;5054732;28;20021;-57
2021/08/06 05:19:31;;;;;;;2.15;1.45;;;;;;;;;;5056015;28;20021;-57
2021/08/06 05:22:00;;;;;;;3.17;1.58;;;;;;;;;;5055443;28;20032;-57
2021/08/06 05:24:26;;;;;;;5.43;1.98;;;;;;;;;;5056167;28;20479;-57
2021/08/06 05:26:52;;;;;;;2.30;1.55;;;;;;;;;;5055502;28;20112;-57
2021/08/06 05:29:18;;;;;;;4.32;2.17;;;;;;;;;;5056481;28;20155;-57
2021/08/06 05:31:44;;;;;;;2.50;1.70;;;;;;;;;;5056467;28;20065;-57
2021/08/06 05:34:10;;;;;;;3.38;1.83;;;;;;;;;;5055213;28;20025;-57
2021/08/06 05:36:36;;;;;;;2.45;1.75;;;;;;;;;;5054411;28;20352;-57
2021/08/06 05:39:02;;;;;;;3.83;2.10;;;;;;;;;;5055441;28;20025;-57
2021/08/06 05:41:28;;;;;;;3.45;1.50;;;;;;;;;;5056005;28;20028;-57
2021/08/06 05:43:54;;;;;;;3.67;1.80;;;;;;;;;;5055311;28;20033;-57
2021/08/06 05:46:20;;;;;;;2.78;2.00;;;;;;;;;;5055106;28;20443;-57
2021/08/06 05:48:46;;;;;;;3.17;1.90;;;;;;;;;;5054846;28;20032;-57
2021/08/06 05:51:12;;;;;;;4.13;2.20;;;;;;;;;;5054274;28;20107;-57
2021/08/06 05:53:38;;;;;;;5.65;2.40;;;;;;;;;;5055735;28;20029;-57
2021/08/06 05:56:04;;;;;;;2.85;1.45;;;;;;;;;;5055365;28;20029;-58
2021/08/06 05:58:30;;;;;;;3.05;1.70;;;;;;;;;;5055592;28;20029;-57
2021/08/06 06:00:56;;;;;;;3.17;2.03;;;;;;;;;;5054037;28;20025;-57
2021/08/06 06:03:22;;;;;;;3.10;1.95;;;;;;;;;;5055090;28;20029;-57
2021/08/06 06:05:48;;;;;;;2.75;1.95;;;;;;;;;;5055565;28;20033;-57
2021/08/06 06:08:15;;;;;;;3.78;2.00;;;;;;;;;;5053447;28;20523;-57
2021/08/06 06:10:41;;;;;;;4.85;1.67;;;;;;;;;;5053428;28;20029;-58
2021/08/06 06:13:07;;;;;;;2.20;1.40;;;;;;;;;;5055419;28;20037;-57
2021/08/06 06:15:35;;;;;;;4.43;1.98;;;;;;;;;;5053982;28;20029;-57
2021/08/06 06:18:01;;;;;;;2.30;1.73;;;;;;;;;;5054734;28;20079;-57
2021/08/06 06:20:28;;;;;;;3.55;2.25;;;;;;;;;;5054637;28;20407;-57
2021/08/06 06:22:54;;;;;;;3.22;2.35;;;;;;;;;;5055083;28;20032;-57
2021/08/06 06:25:20;;;;;;;2.20;1.65;;;;;;;;;;5054824;28;20059;-57
2021/08/06 06:27:49;;;;;;;3.15;2.25;;;;;;;;;;5054554;28;20027;-57
2021/08/06 06:30:14;;;;;;;3.08;1.75;;;;;;;;;;5053459;28;20021;-57
2021/08/06 06:32:40;;;;;;;2.95;1.83;;;;;;;;;;5054854;28;20032;-57
2021/08/06 06:35:07;;;;;;;2.50;1.65;;;;;;;;;;5054091;28;20100;-57
2021/08/06 06:37:33;;;;;;;2.38;1.42;;;;;;;;;;5055275;28;20044;-57
2021/08/06 06:39:59;;;;;;;2.72;1.77;;;;;;;;;;5053348;28;20017;-57
2021/08/06 06:42:25;;;;;;;4.72;1.73;;;;;;;;;;5053367;28;20021;-57
2021/08/06 06:44:51;;;;;;;3.85;1.70;;;;;;;;;;5053529;28;20029;-57
2021/08/06 06:47:17;;;;;;;3.33;1.80;;;;;;;;;;5053075;28;20028;-57
2021/08/06 06:49:44;;;;;;;2.90;2.10;;;;;;;;;;5054769;28;20040;-57
2021/08/06 06:52:10;;;;;;;4.63;1.70;;;;;;;;;;5054697;28;20370;-57
2021/08/06 06:54:36;;;;;;;2.47;1.60;;;;;;;;;;5054215;28;20017;-57
2021/08/06 06:57:02;;;;;;;3.88;1.75;;;;;;;;;;5054238;28;20028;-57
2021/08/06 06:59:28;;;;;;;2.90;1.52;;;;;;;;;;5054208;28;20113;-57
2021/08/06 07:01:54;;;;;;;2.75;2.08;;;;;;;;;;5054674;28;20503;-58
2021/08/06 07:04:20;;;;;;;2.60;1.90;;;;;;;;;;5054474;28;20041;-58
2021/08/06 07:06:46;;;;;;;2.78;1.50;;;;;;;;;;5054058;28;20378;-57
2021/08/06 07:09:12;;;;;;;2.13;1.38;;;;;;;;;;5052758;28;20028;-57
2021/08/06 07:11:38;;;;;;;3.30;1.58;;;;;;;;;;5053709;28;20036;-57
2021/08/06 07:14:05;;;;;;;2.33;1.20;;;;;;;;;;5053919;28;20469;-57
2021/08/06 07:16:31;;;;;;;2.70;1.27;;;;;;;;;;5054282;28;20021;-58
2021/08/06 07:18:57;;;;;;;2.45;1.10;;;;;;;;;;5052884;28;20485;-58
2021/08/06 07:21:23;;;;;;;1.15;0.70;;;;;;;;;;5054750;28;20032;-58
2021/08/06 07:23:51;;;;;;;2.35;1.25;;;;;;;;;;5054705;28;20025;-58
2021/08/06 07:26:17;;;;;;;1.95;1.30;;;;;;;;;;5054156;28;20094;-57
2021/08/06 07:28:43;;;;;;;2.03;1.00;;;;;;;;;;5054102;28;20037;-57
2021/08/06 07:31:12;;;;;;;1.83;1.17;;;;;;;;;;5052754;28;20024;-57
2021/08/06 07:33:38;;;;;;;1.65;1.25;;;;;;;;;;5054214;28;20025;-57
2021/08/06 07:36:04;;;;;;;2.15;1.38;;;;;;;;;;5053678;28;20071;-57
2021/08/06 07:38:30;;;;;;;3.00;1.00;;;;;;;;;;5052485;28;20033;-57
2021/08/06 07:40:56;;;;;;;3.08;1.15;;;;;;;;;;5053577;28;20028;-57
2021/08/06 07:43:22;;;;;;;1.95;1.00;;;;;;;;;;5053878;28;20112;-57
2021/08/06 07:45:48;;;;;;;2.53;0.98;;;;;;;;;;5053914;28;20056;-57
2021/08/06 07:48:15;;;;;;;2.88;1.10;;;;;;;;;;5052542;28;20414;-57
2021/08/06 07:50:41;;;;;;;1.80;1.08;;;;;;;;;;5052881;28;20083;-57
2021/08/06 07:53:08;;;;;;;2.22;1.20;;;;;;;;;;5053587;28;20025;-57
2021/08/06 07:55:34;;;;;;;9.63;4.03;;;;;;;;;;5053511;28;20060;-57
2021/08/06 07:58:00;;;;;;;2.25;1.30;;;;;;;;;;5056264;28;20055;-57
2021/08/06 08:00:26;;;;;;;2.53;1.50;;;;;;;;;;5057455;28;20017;-57
2021/08/06 08:02:52;;;;;;;2.55;1.55;;;;;;;;;;5057503;28;20021;-57
2021/08/06 08:05:23;;;;;;;2.58;1.20;;;;;;;;;;5057480;28;20090;-57
2021/08/06 08:07:49;;;;;;;3.83;0.95;;;;;;;;;;5057778;28;20383;-57
2021/08/06 08:10:19;;;;;;;1.92;0.93;;;;;;;;;;5057395;28;20025;-57
2021/08/06 08:12:46;;;;;;;1.15;0.57;;;;;;;;;;5056448;28;20064;-57
2021/08/06 08:15:12;;;;;;;2.45;0.77;;;;;;;;;;5056615;28;20360;-57
2021/08/06 08:17:38;;;;;;;1.38;0.63;;;;;;;;;;5056878;28;20025;-56
2021/08/06 08:20:04;;;;;;;1.08;0.47;;;;;;;;;;5058022;28;20033;-57
2021/08/06 08:22:30;;;;;;;3.28;1.60;;;;;;;;;;5057739;28;20064;-57
2021/08/06 08:24:59;;;;;;;1.73;0.95;;;;;;;;;;5057144;28;20079;-57
2021/08/06 08:27:24;;;;;;;3.30;0.95;;;;;;;;;;5057585;28;20025;-57
2021/08/06 08:29:50;;;;;;;1.38;0.70;;;;;;;;;;5056393;28;20032;-58
2021/08/06 08:32:21;;;;;;;5.85;0.80;;;;;;;;;;5057464;28;20025;-57
2021/08/06 08:34:47;;;;;;;;;;;;;;;;;;5057720;28;20029;-57
2021/08/06 08:37:14;;;;;;;1.85;0.70;;;;;;;;;;5056624;28;19905;-57
2021/08/06 08:39:40;;;;;;;2.45;0.65;;;;;;;;;;5056798;28;20086;-57
2021/08/06 08:42:06;;;;;;;1.67;0.55;;;;;;;;;;5056950;28;20082;-57
2021/08/06 08:44:37;;;;;;;2.10;0.50;;;;;;;;;;5055407;28;20037;-57
2021/08/06 08:47:03;;;;;;;1.40;0.75;;;;;;;;;;5056990;28;20447;-57
2021/08/06 08:49:33;;;;;;;1.42;0.70;;;;;;;;;;5056582;28;20025;-57
2021/08/06 08:51:59;;;;;;;2.28;0.80;;;;;;;;;;5057166;28;20021;-57
2021/08/06 08:54:26;;;;;;;2.10;0.80;;;;;;;;;;5056830;28;20425;-57
2021/08/06 08:56:54;;;;;;;1.27;0.60;;;;;;;;;;5055791;28;20040;-57
2021/08/06 08:59:21;;;;;;;1.35;0.57;;;;;;;;;;5056054;28;20080;-57
2021/08/06 09:01:47;;;;;;;1.13;0.50;;;;;;;;;;5056999;28;20043;-57
2021/08/06 09:04:30;;;;;;;2.70;0.65;;;;;;;;;;5055061;28;20028;-57
2021/08/06 09:06:57;;;;;;;0.80;0.30;;;;;;;;;;5055520;28;20021;-57
2021/08/06 09:09:24;;;;;;;1.65;0.60;;;;;;;;;;5054940;28;20025;-57
2021/08/06 09:11:51;;;;;;;0.98;0.50;;;;;;;;;;5055591;28;20132;-58
2021/08/06 09:14:27;;;;;;;0.73;0.40;;;;;;;;;;5056748;28;20025;-57
2021/08/06 09:16:59;;;;;;;1.42;0.60;;;;;;;;;;5056587;28;20383;-58
2021/08/06 09:19:25;;;;;;;1.30;0.60;;;;;;;;;;5056060;28;20461;-57
2021/08/06 09:21:51;;;;;;;1.58;0.60;;;;;;;;;;5056882;28;20021;-58
2021/08/06 09:24:18;;;;;;;0.88;0.40;;;;;;;;;;5056485;28;20468;-58
2021/08/06 09:26:45;;;;;;;1.38;0.55;;;;;;;;;;5056527;28;20048;-58
2021/08/06 09:29:17;;;;;;;1.27;0.65;;;;;;;;;;5056422;28;20131;-57
2021/08/06 09:31:55;;;;;;;2.38;0.68;;;;;;;;;;5056175;28;20025;-57
2021/08/06 09:34:24;;;;;;;0.40;0.22;;;;;;;;;;5055754;28;20098;-57
2021/08/06 09:36:56;;;;;;;1.63;0.80;;;;;;;;;;5056583;28;20028;-57
2021/08/06 09:39:22;;;;;;;2.38;0.43;;;;;;;;;;5055470;28;20478;-57
2021/08/06 09:41:48;;;;;;;2.28;0.80;;;;;;;;;;5056289;28;20021;-57
2021/08/06 09:44:15;;;;;;;1.77;0.85;;;;;;;;;;5055524;28;20029;-58
2021/08/06 09:46:41;;;;;;;2.40;0.68;;;;;;;;;;5055576;28;20486;-58
2021/08/06 09:49:07;;;;;;;1.92;0.70;;;;;;;;;;5055565;28;20033;-58
2021/08/06 09:51:38;;;;;;;4.57;0.70;;;;;;;;;;5055770;28;20021;-58
2021/08/06 09:54:23;;;;;;;2.35;0.60;;;;;;;;;;5055108;28;20447;-57
2021/08/06 09:57:00;;;;;;;1.75;0.70;;;;;;;;;;5055285;28;20532;-57
2021/08/06 09:59:28;;;;;;;1.65;0.63;;;;;;;;;;5055809;28;20470;-57
2021/08/06 10:02:26;;;;;;;1.42;0.70;;;;;;;;;;5055385;28;20021;-58
2021/08/06 10:05:03;;;;;;;2.33;0.95;;;;;;;;;;5042949;28;20071;-58
2021/08/06 10:07:30;;;;;;;1.65;0.80;;;;;;;;;;5054836;28;20025;-58
2021/08/06 10:09:56;;;;;;;1.20;0.68;;;;;;;;;;5055999;28;20067;-58
2021/08/06 10:12:22;;;;;;;0.98;0.63;;;;;;;;;;5056014;28;20108;-58
2021/08/06 10:14:48;;;;;;;5.55;1.10;;;;;;;;;;5055280;28;20039;-58
2021/08/06 10:17:15;;;;;;;1.50;0.80;;;;;;;;;;5053683;28;20029;-57
2021/08/06 10:19:41;;;;;;;1.92;0.57;;;;;;;;;;5053861;28;20453;-58
2021/08/06 10:22:08;;;;;;;2.30;0.57;;;;;;;;;;5054787;28;20036;-57
2021/08/06 10:24:34;;;;;;;4.70;0.95;;;;;;;;;;5054283;28;20418;-58
2021/08/06 10:27:01;;;;;;;2.38;0.73;;;;;;;;;;5054378;28;20047;-57
2021/08/06 10:29:27;;;;;;;1.15;0.63;;;;;;;;;;5054707;28;20021;-57
2021/08/06 10:32:12;;;;;;;2.45;0.73;;;;;;;;;;5054376;28;20383;-57
2021/08/06 10:35:04;;;;;;;2.80;0.85;;;;;;;;;;5054987;28;20021;-58
2021/08/06 10:37:49;;;;;;;0.82;0.47;;;;;;;;;;5054054;28;20052;-58
2021/08/06 10:40:34;;;;;;;2.13;0.90;;;;;;;;;;5052926;28;20101;-58
2021/08/06 10:43:01;;;;;;;1.65;0.57;;;;;;;;;;5054962;28;20478;-58
2021/08/06 10:45:45;;;;;;;4.50;1.05;;;;;;;;;;5053523;28;20458;-58
2021/08/06 10:48:30;;;;;;;0.95;0.65;;;;;;;;;;5054421;28;20033;-58
2021/08/06 10:51:14;;;;;;;1.88;0.77;;;;;;;;;;5054095;28;20044;-58
2021/08/06 10:53:43;;;;;;;1.65;0.80;;;;;;;;;;5054895;28;20055;-57
2021/08/06 10:56:20;;;;;;;3.17;1.00;;;;;;;;;;5054737;28;20021;-58
2021/08/06 10:58:52;;;;;;;2.90;0.80;;;;;;;;;;5055027;28;20112;-57
2021/08/06 11:01:36;;;;;;;1.30;0.60;;;;;;;;;;5054920;28;20021;-58
2021/08/06 11:04:04;;;;;;;1.65;0.60;;;;;;;;;;5054443;28;20028;-57
2021/08/06 11:06:35;;;;;;;1.10;0.60;;;;;;;;;;5054103;28;20113;-57
2021/08/06 11:09:02;;;;;;;0.88;0.40;;;;;;;;;;5054206;28;20457;-58
2021/08/06 11:11:47;;;;;;;1.25;0.45;;;;;;;;;;5054817;28;20340;-57
2021/08/06 11:14:14;;;;;;;2.28;0.70;;;;;;;;;;5052596;28;20032;-58
2021/08/06 11:16:59;;;;;;;3.88;0.82;;;;;;;;;;5053306;28;20078;-57
2021/08/06 11:19:29;;;;;;;1.13;0.47;;;;;;;;;;5053765;28;20040;-58
2021/08/06 11:21:55;;;;;;;3.33;0.85;;;;;;;;;;5054535;28;20107;-58
2021/08/06 11:24:21;;;;;;;1.85;1.23;;;;;;;;;;5053450;28;20065;-58
2021/08/06 11:26:48;;;;;;;2.40;0.60;;;;;;;;;;5052588;28;20021;-57
2021/08/06 11:29:15;;;;;;;1.80;0.60;;;;;;;;;;5052254;28;20067;-58
2021/08/06 11:31:41;;;;;;;1.75;0.63;;;;;;;;;;5053177;28;20021;-57
2021/08/06 11:34:09;;;;;;;0.85;0.43;;;;;;;;;;5053719;28;20114;-57
2021/08/06 11:36:36;;;;;;;1.58;0.52;;;;;;;;;;5053634;28;20340;-58
2021/08/06 11:39:11;;;;;;;1.67;0.35;;;;;;;;;;5053401;28;20463;-58
2021/08/06 11:41:47;;;;;;;2.20;0.60;;;;;;;;;;5054089;28;20036;-58
2021/08/06 11:44:14;;;;;;;1.60;0.90;;;;;;;;;;5052556;28;20079;-58
2021/08/06 11:46:50;;;;;;;1.50;0.73;;;;;;;;;;5052360;28;20035;-58
2021/08/06 11:49:17;;;;;;;1.40;0.30;;;;;;;;;;5053581;28;20028;-58
2021/08/06 11:51:54;;;;;;;2.25;0.90;;;;;;;;;;5054345;28;20504;-58
2021/08/06 11:54:23;;;;;;;2.97;0.68;;;;;;;;;;5054166;28;20037;-58
2021/08/06 11:56:59;;;;;;;1.30;0.70;;;;;;;;;;5053998;28;20425;-58
2021/08/06 11:59:25;;;;;;;1.33;0.65;;;;;;;;;;5052199;28;20029;-58
2021/08/06 12:02:11;;;;;;;1.77;0.80;;;;;;;;;;5052736;28;20028;-58
2021/08/06 12:04:37;;;;;;;1.05;0.52;;;;;;;;;;5054107;28;20025;-58
2021/08/06 12:07:03;;;;;;;2.45;0.95;;;;;;;;;;5053451;28;20352;-58
2021/08/06 12:09:29;;;;;;;1.95;0.50;;;;;;;;;;5053457;28;20096;-58
2021/08/06 12:11:55;;;;;;;1.80;0.50;;;;;;;;;;5053427;28;20039;-58
2021/08/06 12:14:28;;;;;;;1.83;0.70;;;;;;;;;;5053585;28;20525;-58
2021/08/06 12:16:55;;;;;;;1.88;0.40;;;;;;;;;;5053274;28;20158;-58
2021/08/06 12:19:21;;;;;;;2.25;0.68;;;;;;;;;;5053238;28;20028;-58
2021/08/06 12:21:47;;;;;;;1.63;0.63;;;;;;;;;;5053732;28;20024;-58
2021/08/06 12:24:14;;;;;;;1.20;0.55;;;;;;;;;;5052538;28;20478;-58
2021/08/06 12:26:40;;;;;;;5.50;1.15;;;;;;;;;;5053127;28;20028;-58
2021/08/06 12:29:17;;;;;;;1.38;0.57;;;;;;;;;;5052768;28;20017;-58
2021/08/06 12:31:49;;;;;;;5.13;0.75;;;;;;;;;;5053114;28;20028;-58
2021/08/06 12:34:18;;;;;;;1.55;0.57;;;;;;;;;;5053079;28;20052;-58
2021/08/06 12:36:53;;;;;;;1.20;0.45;;;;;;;;;;5053099;28;20025;-58
2021/08/06 12:39:19;;;;;;;1.55;0.52;;;;;;;;;;5053391;28;20025;-58
2021/08/06 12:41:46;;;;;;;1.60;0.80;;;;;;;;;;5052655;28;20029;-58
2021/08/06 12:44:13;;;;;;;1.17;0.57;;;;;;;;;;5055808;28;20174;-58
2021/08/06 12:46:39;;;;;;;1.88;0.60;;;;;;;;;;5056747;28;20032;-58
2021/08/06 12:49:11;;;;;;;1.20;0.57;;;;;;;;;;5055839;28;20027;-58
2021/08/06 12:51:39;;;;;;;2.60;0.90;;;;;;;;;;5057172;28;20029;-58
2021/08/06 12:54:25;;;;;;;0.98;0.40;;;;;;;;;;5056468;28;20029;-58
2021/08/06 12:56:55;;;;;;;2.22;0.50;;;;;;;;;;5055016;28;20025;-58
2021/08/06 12:59:22;;;;;;;2.63;0.60;;;;;;;;;;5055201;28;20017;-58
2021/08/06 13:01:49;;;;;;;1.17;0.50;;;;;;;;;;5056965;28;20047;-58
2021/08/06 13:04:15;;;;;;;1.98;0.73;;;;;;;;;;5056241;28;20029;-58
2021/08/06 13:06:46;;;;;;;3.22;0.57;;;;;;;;;;5056721;28;20031;-58
2021/08/06 13:09:12;;;;;;;1.55;0.52;;;;;;;;;;5056639;28;20017;-58
2021/08/06 13:11:38;;;;;;;1.60;0.70;;;;;;;;;;5056288;28;20116;-58
2021/08/06 13:14:06;;;;;;;3.95;0.55;;;;;;;;;;5056696;28;20125;-58
2021/08/06 13:16:32;;;;;;;0.88;0.35;;;;;;;;;;5055921;28;20348;-58
2021/08/06 13:18:58;;;;;;;1.10;0.30;;;;;;;;;;5055972;28;20032;-58
2021/08/06 13:21:24;;;;;;;1.50;0.40;;;;;;;;;;5056040;28;20028;-58
2021/08/06 13:23:50;;;;;;;2.22;0.70;;;;;;;;;;5056457;28;20032;-58
2021/08/06 13:26:16;;;;;;;1.17;0.50;;;;;;;;;;5056239;28;20049;-58
2021/08/06 13:28:42;;;;;;;2.65;0.85;;;;;;;;;;5056422;28;20566;-58
2021/08/06 13:31:09;;;;;;;2.25;0.57;;;;;;;;;;5056459;28;20100;-58
2021/08/06 13:33:35;;;;;;;3.80;0.73;;;;;;;;;;5056657;28;20029;-58
2021/08/06 13:36:01;;;;;;;0.98;0.47;;;;;;;;;;5055790;28;20029;-58
2021/08/06 13:38:27;;;;;;;1.60;0.60;;;;;;;;;;5056364;28;20342;-58
2021/08/06 13:40:53;;;;;;;1.50;0.68;;;;;;;;;;5056541;28;20025;-58
2021/08/06 13:43:19;;;;;;;2.45;0.70;;;;;;;;;;5056008;28;20033;-58
2021/08/06 13:45:46;;;;;;;3.13;1.00;;;;;;;;;;5055700;28;20023;-58
2021/08/06 13:48:14;;;;;;;3.40;0.73;;;;;;;;;;5055862;28;20071;-58
2021/08/06 13:50:40;;;;;;;2.05;0.75;;;;;;;;;;5054341;28;20370;-58
2021/08/06 13:53:07;;;;;;;1.02;0.52;;;;;;;;;;5056261;28;20418;-58
2021/08/06 13:55:33;;;;;;;0.88;0.50;;;;;;;;;;5054841;28;20017;-58
2021/08/06 13:57:59;;;;;;;0.98;0.35;;;;;;;;;;5055406;28;20477;-58
2021/08/06 14:00:25;;;;;;;0.90;0.50;;;;;;;;;;5055651;28;20362;-58
2021/08/06 14:02:51;;;;;;;1.38;0.60;;;;;;;;;;5055269;28;20425;-58
2021/08/06 14:05:17;;;;;;;1.60;0.43;;;;;;;;;;5055318;28;20029;-58
2021/08/06 14:07:43;;;;;;;0.82;0.40;;;;;;;;;;5053912;28;20029;-58
2021/08/06 14:10:09;;;;;;;2.22;0.60;;;;;;;;;;5054352;28;20104;-58
2021/08/06 14:12:35;;;;;;;3.08;0.47;;;;;;;;;;5055458;28;20024;-58
2021/08/06 14:15:01;;;;;;;0.82;0.28;;;;;;;;;;5054826;28;20486;-58
2021/08/06 14:17:28;;;;;;;1.25;0.50;;;;;;;;;;5054930;28;20029;-58
2021/08/06 14:19:54;;;;;;;0.93;0.50;;;;;;;;;;5054767;28;20047;-58
2021/08/06 14:22:22;;;;;;;0.77;0.20;;;;;;;;;;5054954;28;20114;-58
2021/08/06 14:24:48;;;;;;;2.03;0.85;;;;;;;;;;5054992;28;20060;-58
2021/08/06 14:27:14;;;;;;;2.60;0.82;;;;;;;;;;5054759;28;20104;-58
2021/08/06 14:29:41;;;;;;;1.40;0.55;;;;;;;;;;5054730;28;20060;-58
2021/08/06 14:32:07;;;;;;;0.95;0.57;;;;;;;;;;5054954;28;20478;-58
2021/08/06 14:34:33;;;;;;;1.30;0.55;;;;;;;;;;5054735;28;20055;-58
2021/08/06 14:36:58;;;;;;;1.27;0.38;;;;;;;;;;5054682;28;20108;-58
2021/08/06 14:39:25;;;;;;;1.08;0.57;;;;;;;;;;5054875;28;20336;-58
2021/08/06 14:41:50;;;;;;;1.58;0.82;;;;;;;;;;5054636;28;20486;-58
2021/08/06 14:44:16;;;;;;;2.28;1.00;;;;;;;;;;5054412;28;20025;-58
2021/08/06 14:46:42;;;;;;;1.27;0.57;;;;;;;;;;5055136;28;20398;-58
2021/08/06 14:49:09;;;;;;;2.20;0.70;;;;;;;;;;5054104;28;20547;-58